createdAt,value
2022-10-06T00:00:14.665Z,294.05
2022-10-06T00:02:41.336Z,322.02
2022-10-06T00:05:08.084Z,313.17
2022-10-06T00:07:36.120Z,282.02
2022-10-06T00:10:03.613Z,290.35
2022-10-06T00:12:30.630Z,198.82
2022-10-06T00:14:57.268Z,167.40
2022-10-06T00:17:23.931Z,176.55
2022-10-06T00:19:50.611Z,223.68
2022-10-06T00:22:17.187Z,158.10
2022-10-06T00:24:44.014Z,187.82
2022-10-06T00:27:10.751Z,207.55
2022-10-06T00:29:37.370Z,220.05
2022-10-06T00:32:03.938Z,221.10
2022-10-06T00:34:30.591Z,226.60
2022-10-06T00:36:57.331Z,244.25
2022-10-06T00:39:24.600Z,222.52
2022-10-06T00:41:51.216Z,178.57
2022-10-06T00:44:17.874Z,177.75
2022-10-06T00:46:53.694Z,240.75
2022-10-06T00:49:31.103Z,247.68
2022-10-06T00:52:02.098Z,245.90
2022-10-06T00:54:28.956Z,206.55
2022-10-06T00:56:55.799Z,205.52
2022-10-06T00:59:22.496Z,201.35
2022-10-06T01:02:00.714Z,190.10
2022-10-06T01:04:31.186Z,243.15
2022-10-06T01:06:59.493Z,218.43
2022-10-06T01:09:28.265Z,247.70
2022-10-06T01:12:00.126Z,230.50
2022-10-06T01:14:29.151Z,204.70
2022-10-06T01:17:02.278Z,224.70
2022-10-06T01:19:55.650Z,226.45
2022-10-06T01:22:31.410Z,223.65
2022-10-06T01:24:58.632Z,241.38
2022-10-06T01:27:27.611Z,213.75
2022-10-06T01:29:55.814Z,217.60
2022-10-06T01:32:24.760Z,228.57
2022-10-06T01:34:53.524Z,239.35
2022-10-06T01:37:21.374Z,209.70
2022-10-06T01:39:48.082Z,210.23
2022-10-06T01:42:14.887Z,221.50
2022-10-06T01:44:41.660Z,216.80
2022-10-06T01:47:08.745Z,204.43
2022-10-06T01:49:35.417Z,207.38
2022-10-06T01:52:03.141Z,225.30
2022-10-06T01:54:29.821Z,224.48
2022-10-06T01:56:56.523Z,255.05
2022-10-06T01:59:24.615Z,287.42
2022-10-06T02:01:52.237Z,238.35
2022-10-06T02:04:20.584Z,235.83
2022-10-06T02:06:47.527Z,216.40
2022-10-06T02:09:14.162Z,233.03
2022-10-06T02:11:42.521Z,209.88
2022-10-06T02:14:09.148Z,226.02
2022-10-06T02:16:36.308Z,235.70
2022-10-06T02:19:03.022Z,209.68
2022-10-06T02:21:29.645Z,221.77
2022-10-06T02:23:57.137Z,218.53
2022-10-06T02:26:24.353Z,216.30
2022-10-06T02:28:51.579Z,238.55
2022-10-06T02:31:22.613Z,220.20
2022-10-06T02:33:49.421Z,192.95
2022-10-06T02:36:18.107Z,191.90
2022-10-06T02:38:44.849Z,208.55
2022-10-06T02:41:11.867Z,216.93
2022-10-06T02:43:39.101Z,228.03
2022-10-06T02:46:13.746Z,205.07
2022-10-06T02:48:48.145Z,186.73
2022-10-06T02:51:17.854Z,206.27
2022-10-06T02:53:47.443Z,217.02
2022-10-06T02:56:16.936Z,213.63
2022-10-06T02:58:44.813Z,204.13
2022-10-06T03:01:19.071Z,210.35
2022-10-06T03:03:49.282Z,210.60
2022-10-06T03:06:23.524Z,210.60
2022-10-06T03:09:00.657Z,201.93
2022-10-06T03:11:31.127Z,216.10
2022-10-06T03:13:58.844Z,211.25
2022-10-06T03:16:27.540Z,191.63
2022-10-06T03:18:57.631Z,197.75
2022-10-06T03:21:27.517Z,226.95
2022-10-06T03:23:54.923Z,206.80
2022-10-06T03:26:27.750Z,225.75
2022-10-06T03:28:55.268Z,212.38
2022-10-06T03:31:22.696Z,208.23
2022-10-06T03:33:50.851Z,188.60
2022-10-06T03:36:23.526Z,217.45
2022-10-06T03:38:50.643Z,183.90
2022-10-06T03:41:22.474Z,209.45
2022-10-06T03:43:50.863Z,229.65
2022-10-06T03:46:20.859Z,217.95
2022-10-06T03:48:49.411Z,227.55
2022-10-06T03:51:23.466Z,216.07
2022-10-06T03:53:52.001Z,231.25
2022-10-06T03:56:24.830Z,217.23
2022-10-06T03:59:00.689Z,217.38
2022-10-06T04:01:34.941Z,231.55
2022-10-06T04:04:07.229Z,192.57
2022-10-06T04:06:36.358Z,221.30
2022-10-06T04:09:09.270Z,183.73
2022-10-06T04:11:40.252Z,234.65
2022-10-06T04:14:10.450Z,212.68
2022-10-06T04:16:40.404Z,239.88
2022-10-06T04:19:10.562Z,195.18
2022-10-06T04:21:41.898Z,212.80
2022-10-06T04:24:11.444Z,219.27
2022-10-06T04:26:45.072Z,222.18
2022-10-06T04:29:15.114Z,211.93
2022-10-06T04:31:43.879Z,249.75
2022-10-06T04:34:17.171Z,239.60
2022-10-06T04:36:45.482Z,255.63
2022-10-06T04:39:16.058Z,239.07
2022-10-06T04:41:47.155Z,233.55
2022-10-06T04:44:19.278Z,206.65
2022-10-06T04:46:46.968Z,221.40
2022-10-06T04:49:21.637Z,230.90
2022-10-06T04:51:51.614Z,220.97
2022-10-06T04:54:19.338Z,227.93
2022-10-06T04:56:48.425Z,258.58
2022-10-06T04:59:17.019Z,232.80
2022-10-06T05:01:44.973Z,214.13
2022-10-06T05:04:13.640Z,212.98
2022-10-06T05:06:42.342Z,204.27
2022-10-06T05:09:13.396Z,222.15
2022-10-06T05:11:46.096Z,229.15
2022-10-06T05:14:15.817Z,209.98
2022-10-06T05:16:45.689Z,211.77
2022-10-06T05:19:15.954Z,219.07
2022-10-06T05:21:42.868Z,235.63
2022-10-06T05:24:13.181Z,220.50
2022-10-06T05:26:40.011Z,207.80
2022-10-06T05:29:10.130Z,203.47
2022-10-06T05:31:43.047Z,218.32
2022-10-06T05:34:10.343Z,197.98
2022-10-06T05:36:37.725Z,203.20
2022-10-06T05:39:06.162Z,157.50
2022-10-06T05:41:45.703Z,187.07
2022-10-06T05:44:13.890Z,192.88
2022-10-06T05:46:42.482Z,204.07
2022-10-06T05:49:10.414Z,188.15
2022-10-06T05:51:49.471Z,197.65
2022-10-06T05:54:28.869Z,194.15
2022-10-06T05:56:55.643Z,190.70
2022-10-06T05:59:23.743Z,185.60
2022-10-06T06:01:53.140Z,200.02
2022-10-06T06:04:27.673Z,197.18
2022-10-06T06:06:56.390Z,206.27
2022-10-06T06:09:26.137Z,157.38
2022-10-06T06:11:54.544Z,228.55
2022-10-06T06:15:06.244Z,170.10
2022-10-06T06:17:38.482Z,169.50
2022-10-06T06:20:06.098Z,152.93
2022-10-06T06:22:32.730Z,185.50
2022-10-06T06:24:59.420Z,145.15
2022-10-06T06:27:26.279Z,185.30
2022-10-06T06:29:53.341Z,161.98
2022-10-06T06:32:20.061Z,186.80
2022-10-06T06:34:46.811Z,184.73
2022-10-06T06:37:15.396Z,165.45
2022-10-06T06:39:45.555Z,152.60
2022-10-06T06:42:12.163Z,162.50
2022-10-06T06:44:39.457Z,145.45
2022-10-06T06:47:19.868Z,167.00
2022-10-06T06:49:47.699Z,173.88
2022-10-06T06:52:14.666Z,159.83
2022-10-06T06:54:41.899Z,141.43
2022-10-06T06:57:12.292Z,166.82
2022-10-06T06:59:39.222Z,132.43
2022-10-06T07:02:10.189Z,154.20
2022-10-06T07:04:38.861Z,170.35
2022-10-06T07:07:08.176Z,183.18
2022-10-06T07:09:36.809Z,170.83
2022-10-06T07:12:13.349Z,147.48
2022-10-06T07:15:04.551Z,171.93
2022-10-06T07:17:55.703Z,158.40
2022-10-06T07:20:41.596Z,145.63
2022-10-06T07:23:34.319Z,131.13
2022-10-06T07:26:01.554Z,151.93
2022-10-06T07:28:31.844Z,189.27
2022-10-06T07:31:01.449Z,219.83
2022-10-06T07:33:32.406Z,178.30
2022-10-06T07:36:02.691Z,156.07
2022-10-06T07:38:30.671Z,153.45
2022-10-06T07:43:48.206Z,153.85
2022-10-06T07:46:16.472Z,185.88
2022-10-06T07:49:01.635Z,219.33
2022-10-06T07:51:28.536Z,242.57
2022-10-06T07:53:57.216Z,216.27
2022-10-06T07:56:53.637Z,208.35
2022-10-06T07:59:20.684Z,192.10
2022-10-06T08:01:47.528Z,200.77
2022-10-06T08:04:14.246Z,178.75
2022-10-06T08:06:42.002Z,164.93
2022-10-06T08:09:08.698Z,202.18
2022-10-06T08:11:35.476Z,172.07
2022-10-06T08:14:02.363Z,155.07
2022-10-06T08:16:30.249Z,156.93
2022-10-06T08:18:59.334Z,183.50
2022-10-06T08:21:28.904Z,196.50
2022-10-06T08:23:58.087Z,206.13
2022-10-06T08:26:26.528Z,213.60
2022-10-06T08:28:57.494Z,215.77
2022-10-06T08:31:24.527Z,202.05
2022-10-06T08:33:56.035Z,218.07
2022-10-06T08:36:31.027Z,155.93
2022-10-06T08:38:58.464Z,149.35
2022-10-06T08:41:27.567Z,169.38
2022-10-06T08:44:18.057Z,140.05
2022-10-06T08:47:13.499Z,120.20
2022-10-06T08:49:44.450Z,120.95
2022-10-06T08:52:58.916Z,122.67
2022-10-06T08:55:50.127Z,121.70
2022-10-06T08:58:54.498Z,112.77
2022-10-06T09:01:27.036Z,116.50
2022-10-06T09:03:57.310Z,104.85
2022-10-06T09:06:42.630Z,108.32
2022-10-06T09:09:43.176Z,120.50
2022-10-06T09:12:37.540Z,129.38
2022-10-06T09:15:28.794Z,120.57
2022-10-06T09:18:19.150Z,107.35
2022-10-06T09:20:47.327Z,108.10
2022-10-06T09:23:17.071Z,102.03
2022-10-06T09:25:44.852Z,116.05
2022-10-06T09:28:15.851Z,117.57
2022-10-06T09:30:43.370Z,111.88
2022-10-06T09:33:19.618Z,109.32
2022-10-06T09:36:15.784Z,114.78
2022-10-06T09:38:45.730Z,106.47
2022-10-06T09:41:13.410Z,96.18
2022-10-06T09:43:53.023Z,93.88
2022-10-06T09:46:31.560Z,80.63
2022-10-06T09:49:31.608Z,79.47
2022-10-06T09:51:59.822Z,57.13
2022-10-06T09:54:28.750Z,62.25
2022-10-06T09:56:59.601Z,54.70
2022-10-06T09:59:40.111Z,57.17
2022-10-06T10:02:31.272Z,67.63
2022-10-06T10:04:58.359Z,60.42
2022-10-06T10:07:27.465Z,45.63
2022-10-06T10:10:10.024Z,50.50
2022-10-06T10:12:36.641Z,53.70
2022-10-06T10:15:25.250Z,59.53
2022-10-06T10:17:58.358Z,40.55
2022-10-06T10:20:25.025Z,38.70
2022-10-06T10:22:53.259Z,42.05
2022-10-06T10:25:44.378Z,44.15
2022-10-06T10:28:15.653Z,41.60
2022-10-06T10:31:14.826Z,25.67
2022-10-06T10:33:53.937Z,28.88
2022-10-06T10:36:38.035Z,21.80
2022-10-06T10:39:11.121Z,13.90
2022-10-06T10:41:52.707Z,11.25
2022-10-06T10:44:38.912Z,16.45
2022-10-06T10:47:17.571Z,11.68
2022-10-06T10:49:51.666Z,9.32
2022-10-06T10:52:25.816Z,8.82
2022-10-06T10:55:17.948Z,10.60
2022-10-06T10:57:46.324Z,9.57
2022-10-06T11:00:19.465Z,12.65
2022-10-06T11:02:47.629Z,8.87
2022-10-06T11:05:38.467Z,9.43
2022-10-06T11:08:32.578Z,7.40
2022-10-06T11:11:02.641Z,14.50
2022-10-06T11:13:40.750Z,17.42
2022-10-06T11:16:25.728Z,20.57
2022-10-06T11:19:22.698Z,10.52
2022-10-06T11:22:05.804Z,8.85
2022-10-06T11:24:50.745Z,14.10
2022-10-06T11:28:04.638Z,15.38
2022-10-06T11:30:38.085Z,13.68
2022-10-06T11:33:20.574Z,11.40
2022-10-06T11:35:48.961Z,11.77
2022-10-06T11:38:27.152Z,8.93
2022-10-06T11:41:18.708Z,9.27
2022-10-06T11:44:09.828Z,10.80
2022-10-06T11:46:44.742Z,6.70
2022-10-06T11:49:30.204Z,7.45
2022-10-06T11:52:17.170Z,6.30
2022-10-06T11:54:43.789Z,5.13
2022-10-06T11:57:26.253Z,5.40
2022-10-06T12:00:16.262Z,5.07
2022-10-06T12:02:45.184Z,5.00
2022-10-06T12:08:12.743Z,4.35
2022-10-06T12:10:49.365Z,7.22
2022-10-06T12:14:44.445Z,4.87
2022-10-06T12:19:38.037Z,4.80
2022-10-06T12:22:15.058Z,5.18
2022-10-06T12:25:07.695Z,5.88
2022-10-06T12:27:39.778Z,4.60
2022-10-06T12:30:18.154Z,4.93
2022-10-06T12:32:55.767Z,5.90
2022-10-06T12:35:31.728Z,6.50
2022-10-06T12:38:04.728Z,5.88
2022-10-06T12:40:51.300Z,7.20
2022-10-06T12:43:17.981Z,5.53
2022-10-06T12:45:46.288Z,5.60
2022-10-06T12:48:41.460Z,9.27
2022-10-06T12:51:26.474Z,8.23
2022-10-06T12:54:01.974Z,6.78
2022-10-06T12:56:34.966Z,16.52
2022-10-06T12:59:24.943Z,14.97
2022-10-06T13:01:58.276Z,8.25
2022-10-06T13:04:44.050Z,13.23
2022-10-06T13:07:16.381Z,5.53
2022-10-06T13:09:45.574Z,6.50
2022-10-06T13:12:27.114Z,5.63
2022-10-06T13:15:34.551Z,6.57
2022-10-06T13:18:14.143Z,4.50
2022-10-06T13:20:49.224Z,5.13
2022-10-06T13:23:28.027Z,6.10
2022-10-06T13:25:54.676Z,5.95
2022-10-06T13:28:25.778Z,5.43
2022-10-06T13:30:58.408Z,5.30
2022-10-06T13:33:29.809Z,5.47
2022-10-06T13:35:58.352Z,6.07
2022-10-06T13:38:24.982Z,8.93
2022-10-06T13:41:06.509Z,11.30
2022-10-06T13:43:39.853Z,7.47
2022-10-06T13:46:12.736Z,5.40
2022-10-06T13:49:05.782Z,6.95
2022-10-06T13:51:33.211Z,7.87
2022-10-06T13:54:06.609Z,16.60
2022-10-06T13:56:37.415Z,13.03
2022-10-06T13:59:28.400Z,23.00
2022-10-06T14:01:57.341Z,35.20
2022-10-06T14:04:23.990Z,22.92
2022-10-06T14:06:52.514Z,17.33
2022-10-06T14:09:29.555Z,20.63
2022-10-06T14:12:11.198Z,18.90
2022-10-06T14:14:38.847Z,11.68
2022-10-06T14:17:06.857Z,24.45
2022-10-06T14:19:36.603Z,26.63
2022-10-06T14:22:05.242Z,48.63
2022-10-06T14:24:34.322Z,40.67
2022-10-06T14:27:06.498Z,46.15
2022-10-06T14:29:34.252Z,40.40
2022-10-06T14:32:08.950Z,56.67
2022-10-06T14:34:35.517Z,35.60
2022-10-06T14:37:02.118Z,28.30
2022-10-06T14:39:28.718Z,35.70
2022-10-06T14:41:55.247Z,35.72
2022-10-06T14:44:22.083Z,44.10
2022-10-06T14:46:49.487Z,36.95
2022-10-06T14:49:16.428Z,21.85
2022-10-06T14:51:44.352Z,33.00
2022-10-06T14:54:11.756Z,43.22
2022-10-06T14:56:39.746Z,19.33
2022-10-06T14:59:08.969Z,19.33
2022-10-06T15:01:38.442Z,16.27
2022-10-06T15:04:08.823Z,26.80
2022-10-06T15:06:54.137Z,15.87
2022-10-06T15:09:20.789Z,7.10
2022-10-06T15:11:47.913Z,9.20
2022-10-06T15:14:14.626Z,12.00
2022-10-06T15:16:43.705Z,5.90
2022-10-06T15:19:11.870Z,4.90
2022-10-06T15:21:42.049Z,7.15
2022-10-06T15:24:12.390Z,12.10
2022-10-06T15:26:57.896Z,14.38
2022-10-06T15:29:24.677Z,13.15
2022-10-06T15:31:55.107Z,12.57
2022-10-06T15:34:25.737Z,11.18
2022-10-06T15:36:55.489Z,10.63
2022-10-06T15:39:27.848Z,23.65
2022-10-06T15:41:54.830Z,37.13
2022-10-06T15:44:21.903Z,27.00
2022-10-06T15:46:50.709Z,7.70
2022-10-06T15:49:22.232Z,6.25
2022-10-06T15:51:51.603Z,23.67
2022-10-06T15:54:20.110Z,7.70
2022-10-06T15:56:48.482Z,15.70
2022-10-06T15:59:16.457Z,21.73
2022-10-06T16:01:48.581Z,23.85
2022-10-06T16:04:23.976Z,26.45
2022-10-06T16:06:55.673Z,24.45
2022-10-06T16:09:25.248Z,17.55
2022-10-06T16:11:53.212Z,11.45
2022-10-06T16:14:19.833Z,13.00
2022-10-06T16:16:47.609Z,21.35
2022-10-06T16:19:15.474Z,32.00
2022-10-06T16:21:43.110Z,15.60
2022-10-06T16:24:10.337Z,34.22
2022-10-06T16:26:37.308Z,22.85
2022-10-06T16:29:04.975Z,28.02
2022-10-06T16:31:31.990Z,15.68
2022-10-06T16:33:58.686Z,22.92
2022-10-06T16:36:28.141Z,30.48
2022-10-06T16:38:55.014Z,38.03
2022-10-06T16:41:22.840Z,37.55
2022-10-06T16:43:51.711Z,44.00
2022-10-06T16:46:24.517Z,12.02
2022-10-06T16:48:53.829Z,40.78
2022-10-06T16:51:23.491Z,35.58
2022-10-06T16:53:55.214Z,55.80
2022-10-06T16:56:30.435Z,35.93
2022-10-06T16:59:04.735Z,45.58
2022-10-06T17:01:34.527Z,39.55
2022-10-06T17:04:08.821Z,39.83
2022-10-06T17:06:46.014Z,36.13
2022-10-06T17:09:15.374Z,42.47
2022-10-06T17:11:44.477Z,33.97
2022-10-06T17:14:12.007Z,35.50
2022-10-06T17:16:42.080Z,38.35
2022-10-06T17:19:10.855Z,42.60
2022-10-06T17:21:46.283Z,47.67
2022-10-06T17:24:14.761Z,39.05
2022-10-06T17:26:42.959Z,40.03
2022-10-06T17:29:27.824Z,22.40
2022-10-06T17:31:58.566Z,44.37
2022-10-06T17:34:31.373Z,25.10
2022-10-06T17:36:59.564Z,33.43
2022-10-06T17:39:26.110Z,42.53
2022-10-06T17:41:53.636Z,35.45
2022-10-06T17:44:23.734Z,45.47
2022-10-06T17:46:53.850Z,24.30
2022-10-06T17:49:21.761Z,32.15
2022-10-06T17:51:49.634Z,37.90
2022-10-06T17:54:19.776Z,59.10
2022-10-06T17:56:48.421Z,69.18
2022-10-06T17:59:28.488Z,45.45
2022-10-06T18:01:56.772Z,82.78
2022-10-06T18:04:24.292Z,44.05
2022-10-06T18:06:53.036Z,66.38
2022-10-06T18:09:19.950Z,84.10
2022-10-06T18:11:55.343Z,57.08
2022-10-06T18:14:24.122Z,28.48
2022-10-06T18:16:57.443Z,95.00
2022-10-06T18:19:35.407Z,63.30
2022-10-06T18:22:06.894Z,76.47
2022-10-06T18:24:33.514Z,111.07
2022-10-06T18:27:00.928Z,37.55
2022-10-06T18:29:33.410Z,57.65
2022-10-06T18:32:34.819Z,82.47
2022-10-06T18:37:35.152Z,129.77
2022-10-06T18:40:06.920Z,128.70
2022-10-06T18:42:34.339Z,223.02
2022-10-06T18:45:19.583Z,234.05
2022-10-06T18:48:04.699Z,262.73
2022-10-06T18:50:34.964Z,285.27
2022-10-06T18:53:01.752Z,244.75
2022-10-06T18:55:29.730Z,243.60
2022-10-06T18:58:03.028Z,269.25
2022-10-06T19:00:29.630Z,283.98
2022-10-06T19:02:56.898Z,251.52
2022-10-06T19:05:23.961Z,283.73
2022-10-06T19:07:56.787Z,290.17
2022-10-06T19:10:23.376Z,289.47
2022-10-06T19:12:50.295Z,274.43
2022-10-06T19:15:21.341Z,288.30
2022-10-06T19:17:49.966Z,252.70
2022-10-06T19:20:18.320Z,267.55
2022-10-06T19:22:45.334Z,264.30
2022-10-06T19:25:13.063Z,272.50
2022-10-06T19:27:39.758Z,270.80
2022-10-06T19:30:06.821Z,261.38
2022-10-06T19:32:33.601Z,298.17
2022-10-06T19:35:00.454Z,272.67
2022-10-06T19:37:35.416Z,247.40
2022-10-06T19:40:02.074Z,291.52
2022-10-06T19:42:47.537Z,292.05
2022-10-06T19:45:15.979Z,318.30
2022-10-06T19:47:42.932Z,281.67
2022-10-06T19:50:12.554Z,275.33
2022-10-06T19:52:41.146Z,264.23
2022-10-06T19:55:07.880Z,285.40
2022-10-06T19:57:34.981Z,274.02
2022-10-06T20:00:01.759Z,246.55
2022-10-06T20:02:28.943Z,277.15
2022-10-06T20:04:56.794Z,276.15
2022-10-06T20:07:27.682Z,249.82
2022-10-06T20:09:55.047Z,273.50
2022-10-06T20:12:24.876Z,297.67
2022-10-06T20:14:53.440Z,301.23
2022-10-06T20:17:20.829Z,305.30
2022-10-06T20:19:47.550Z,302.73
2022-10-06T20:22:14.169Z,303.83
2022-10-06T20:24:41.189Z,286.25
2022-10-06T20:27:07.805Z,255.80
2022-10-06T20:29:34.680Z,273.38
2022-10-06T20:32:01.366Z,270.90
2022-10-06T20:34:32.583Z,291.08
2022-10-06T20:37:02.229Z,289.00
2022-10-06T20:39:52.305Z,282.08
2022-10-06T20:42:20.121Z,307.00
2022-10-06T20:44:47.174Z,290.48
2022-10-06T20:47:16.376Z,279.63
2022-10-06T20:49:42.986Z,281.52
2022-10-06T20:52:10.170Z,347.85
2022-10-06T20:54:37.433Z,266.65
2022-10-06T20:57:05.950Z,280.53
2022-10-06T20:59:36.309Z,307.75
2022-10-06T21:02:05.066Z,278.85
2022-10-06T21:04:32.122Z,288.60
2022-10-06T21:06:59.269Z,312.80
2022-10-06T21:09:28.392Z,330.50
2022-10-06T21:11:58.421Z,339.60
2022-10-06T21:14:25.212Z,314.63
2022-10-06T21:16:54.876Z,339.35
2022-10-06T21:19:21.835Z,336.05
2022-10-06T21:21:52.376Z,321.60
2022-10-06T21:24:20.566Z,303.90
2022-10-06T21:26:47.616Z,356.53
2022-10-06T21:29:17.010Z,349.40
2022-10-06T21:31:49.090Z,359.48
2022-10-06T21:34:15.922Z,338.08
2022-10-06T21:36:45.387Z,345.10
2022-10-06T21:39:20.311Z,318.23
2022-10-06T21:41:48.975Z,319.30
2022-10-06T21:44:17.791Z,348.50
2022-10-06T21:46:52.771Z,365.27
2022-10-06T21:49:27.707Z,333.73
2022-10-06T21:51:56.275Z,365.70
2022-10-06T21:54:25.864Z,352.15
2022-10-06T21:56:53.298Z,352.30
2022-10-06T21:59:20.489Z,349.08
2022-10-06T22:01:50.237Z,341.15
2022-10-06T22:04:17.368Z,362.95
2022-10-06T22:06:45.122Z,353.02
2022-10-06T22:09:19.779Z,323.85
2022-10-06T22:11:51.090Z,355.05
2022-10-06T22:14:22.236Z,332.15
2022-10-06T22:16:52.042Z,338.73
2022-10-06T22:19:21.692Z,355.90
2022-10-06T22:21:48.578Z,313.08
2022-10-06T22:24:20.155Z,335.02
2022-10-06T22:26:47.334Z,333.25
2022-10-06T22:29:17.226Z,354.10
2022-10-06T22:31:45.880Z,358.67
2022-10-06T22:34:15.768Z,333.63
2022-10-06T22:36:42.594Z,365.02
2022-10-06T22:39:09.324Z,373.70
2022-10-06T22:41:36.196Z,354.98
2022-10-06T22:44:02.836Z,346.20
2022-10-06T22:46:32.366Z,342.60
2022-10-06T22:48:59.416Z,352.10
2022-10-06T22:51:26.084Z,362.00
2022-10-06T22:53:58.850Z,317.95
2022-10-06T22:56:31.724Z,333.88
2022-10-06T22:58:59.882Z,359.30
2022-10-06T23:01:28.018Z,383.30
2022-10-06T23:03:55.650Z,358.08
2022-10-06T23:06:22.594Z,339.50
2022-10-06T23:08:49.270Z,353.88
2022-10-06T23:11:18.817Z,352.33
2022-10-06T23:13:45.654Z,374.40
2022-10-06T23:16:14.747Z,367.77
2022-10-06T23:18:42.615Z,358.17
2022-10-06T23:21:22.016Z,348.67
2022-10-06T23:23:50.878Z,391.75
2022-10-06T23:26:18.972Z,373.48
2022-10-06T23:28:49.943Z,387.83
2022-10-06T23:31:16.591Z,393.80
2022-10-06T23:33:43.234Z,358.05
2022-10-06T23:36:12.187Z,391.38
2022-10-06T23:38:39.292Z,375.00
2022-10-06T23:41:06.939Z,334.58
2022-10-06T23:43:34.027Z,355.20
2022-10-06T23:46:01.028Z,344.08
2022-10-06T23:48:27.802Z,377.98
2022-10-06T23:51:10.263Z,356.98
2022-10-06T23:53:37.023Z,325.17
2022-10-06T23:56:04.551Z,341.92
2022-10-06T23:58:31.446Z,360.47
